Time;durP1;ratioP1;P1;durP2;ratioP2;P2;SDS_P1;SDS_P2;PMS_P1;PMS_P2;Temp;Humidity;BMP_temperature;BMP_pressure;BME280_temperature;BME280_humidity;BME280_pressure;Samples;Min_cycle;Max_cycle;Signal;HPM_P1;HPM_P2
2022/06/05 00:01:37;;;;;;;4.40;3.60;;;;;;;;;;4931296;29;20193;-54
2022/06/05 00:04:11;;;;;;;3.90;3.60;;;;;;;;;;4930609;29;20218;-55
2022/06/05 00:06:53;;;;;;;4.73;4.03;;;;;;;;;;4930120;29;20161;-55
2022/06/05 00:09:19;;;;;;;4.77;4.27;;;;;;;;;;4930573;29;20237;-55
2022/06/05 00:11:53;;;;;;;4.00;3.70;;;;;;;;;;4930397;29;20199;-55
2022/06/05 00:14:19;;;;;;;5.10;4.03;;;;;;;;;;4920051;29;20212;-55
2022/06/05 00:16:46;;;;;;;4.30;3.80;;;;;;;;;;4911930;29;20172;-55
2022/06/05 00:19:12;;;;;;;3.90;3.60;;;;;;;;;;4922085;29;20600;-55
2022/06/05 00:21:38;;;;;;;3.97;3.57;;;;;;;;;;4929565;29;20171;-53
2022/06/05 00:24:05;;;;;;;4.10;3.80;;;;;;;;;;4920563;29;20185;-56
2022/06/05 00:26:40;;;;;;;4.80;3.90;;;;;;;;;;4913402;29;20180;-55
2022/06/05 00:29:22;;;;;;;4.13;3.83;;;;;;;;;;4930355;29;20616;-56
2022/06/05 00:31:52;;;;;;;4.07;3.77;;;;;;;;;;4930716;29;20160;-55
2022/06/05 00:34:18;;;;;;;4.13;3.77;;;;;;;;;;4930412;29;20479;-56
2022/06/05 00:37:01;;;;;;;4.10;3.67;;;;;;;;;;4929962;29;20187;-55
2022/06/05 00:39:31;;;;;;;11.20;4.03;;;;;;;;;;4918483;29;20543;-56
2022/06/05 00:42:02;;;;;;;3.90;3.60;;;;;;;;;;4911550;29;20199;-56
2022/06/05 00:44:31;;;;;;;3.87;3.60;;;;;;;;;;4911722;29;20630;-56
2022/06/05 00:46:59;;;;;;;4.17;3.77;;;;;;;;;;4911232;29;20186;-55
2022/06/05 00:49:29;;;;;;;4.50;4.20;;;;;;;;;;4911365;29;20567;-56
2022/06/05 00:51:55;;;;;;;4.17;3.87;;;;;;;;;;4909864;29;20262;-55
2022/06/05 00:54:21;;;;;;;5.00;4.30;;;;;;;;;;4930271;29;20257;-55
2022/06/05 00:56:47;;;;;;;4.77;4.30;;;;;;;;;;4930384;29;20607;-56
2022/06/05 00:59:14;;;;;;;4.57;4.17;;;;;;;;;;4930435;29;20234;-55
2022/06/05 01:01:41;;;;;;;4.93;4.43;;;;;;;;;;4930399;29;20249;-56
2022/06/05 01:04:07;;;;;;;4.90;4.50;;;;;;;;;;4930596;29;20207;-52
2022/06/05 01:06:34;;;;;;;4.73;4.43;;;;;;;;;;4929351;29;20228;-55
2022/06/05 01:09:00;;;;;;;5.00;4.07;;;;;;;;;;4929724;29;20202;-55
2022/06/05 01:11:31;;;;;;;3.93;3.63;;;;;;;;;;4930136;29;20586;-54
2022/06/05 01:14:10;;;;;;;5.83;4.57;;;;;;;;;;4930347;29;20218;-55
2022/06/05 01:16:42;;;;;;;4.10;3.80;;;;;;;;;;4930070;29;20281;-55
2022/06/05 01:19:27;;;;;;;4.70;4.30;;;;;;;;;;4930530;29;20289;-55
2022/06/05 01:22:22;;;;;;;4.47;4.17;;;;;;;;;;4929153;29;20325;-54
2022/06/05 01:25:04;;;;;;;5.03;4.63;;;;;;;;;;4924852;29;20205;-55
2022/06/05 01:27:31;;;;;;;4.00;3.70;;;;;;;;;;4933816;29;20581;-54
2022/06/05 01:30:02;;;;;;;5.10;4.47;;;;;;;;;;4933957;29;20699;-54
2022/06/05 01:32:48;;;;;;;4.50;3.90;;;;;;;;;;4933711;29;20209;-54
2022/06/05 01:35:22;;;;;;;5.03;4.63;;;;;;;;;;4926342;29;20201;-54
2022/06/05 01:38:08;;;;;;;5.53;4.10;;;;;;;;;;4931243;29;20623;-55
2022/06/05 01:40:37;;;;;;;4.73;4.33;;;;;;;;;;4933378;29;20201;-54
2022/06/05 01:43:08;;;;;;;4.53;4.23;;;;;;;;;;4933816;29;20624;-53
2022/06/05 01:45:44;;;;;;;4.80;4.30;;;;;;;;;;4933410;29;20634;-55
2022/06/05 01:48:12;;;;;;;4.37;3.97;;;;;;;;;;4933549;29;20189;-53
2022/06/05 01:50:40;;;;;;;5.20;4.80;;;;;;;;;;4932539;29;20684;-54
2022/06/05 01:53:13;;;;;;;5.13;4.70;;;;;;;;;;4932215;29;20236;-54
2022/06/05 01:55:43;;;;;;;4.67;4.27;;;;;;;;;;4931297;29;20185;-55
2022/06/05 01:58:10;;;;;;;4.97;4.57;;;;;;;;;;4932732;29;20158;-55
2022/06/05 02:00:36;;;;;;;4.80;4.40;;;;;;;;;;4932691;29;20189;-55
2022/06/05 02:03:23;;;;;;;5.07;4.57;;;;;;;;;;4932906;29;20609;-55
2022/06/05 02:05:51;;;;;;;4.67;4.27;;;;;;;;;;4931948;29;20180;-55
2022/06/05 02:08:20;;;;;;;4.93;4.53;;;;;;;;;;4932151;29;20640;-56
2022/06/05 02:10:49;;;;;;;5.27;4.80;;;;;;;;;;4932509;29;20212;-55
2022/06/05 02:13:15;;;;;;;4.57;4.27;;;;;;;;;;4932787;29;20442;-52
2022/06/05 02:15:42;;;;;;;4.90;4.50;;;;;;;;;;4932466;29;20172;-54
2022/06/05 02:18:08;;;;;;;5.57;4.67;;;;;;;;;;4932620;29;20177;-55
2022/06/05 02:20:35;;;;;;;5.40;5.00;;;;;;;;;;4932243;29;20213;-54
2022/06/05 02:23:03;;;;;;;6.00;5.00;;;;;;;;;;4940716;29;20823;-55
2022/06/05 02:25:29;;;;;;;5.27;4.83;;;;;;;;;;4932656;29;20185;-55
2022/06/05 02:28:00;;;;;;;6.23;4.73;;;;;;;;;;4932672;29;20683;-52
2022/06/05 02:30:29;;;;;;;4.90;4.60;;;;;;;;;;4913627;29;20686;-54
2022/06/05 02:32:55;;;;;;;5.40;4.90;;;;;;;;;;4913886;29;20554;-55
2022/06/05 02:35:36;;;;;;;5.30;4.57;;;;;;;;;;4913051;29;20645;-55
2022/06/05 02:38:32;;;;;;;4.50;4.20;;;;;;;;;;4914095;29;20198;-55
2022/06/05 02:41:14;;;;;;;4.87;4.37;;;;;;;;;;4923840;29;20644;-54
2022/06/05 02:43:45;;;;;;;5.27;4.87;;;;;;;;;;4931059;29;20253;-54
2022/06/05 02:46:14;;;;;;;5.83;5.23;;;;;;;;;;4932025;29;20201;-53
2022/06/05 02:48:48;;;;;;;4.93;4.63;;;;;;;;;;4932296;29;20189;-54
2022/06/05 02:51:17;;;;;;;7.50;6.80;;;;;;;;;;4931498;29;20692;-53
2022/06/05 02:53:52;;;;;;;4.93;4.43;;;;;;;;;;4931625;29;20996;-54
2022/06/05 02:56:18;;;;;;;6.23;5.67;;;;;;;;;;4931815;29;20161;-53
2022/06/05 02:58:45;;;;;;;5.83;5.23;;;;;;;;;;4932272;29;20193;-54
2022/06/05 03:03:56;;;;;;;5.30;4.90;;;;;;;;;;4932483;29;20216;-53
2022/06/05 03:06:23;;;;;;;5.13;4.83;;;;;;;;;;4930926;29;20185;-54
2022/06/05 03:08:49;;;;;;;5.73;5.17;;;;;;;;;;4931608;29;20531;-56
2022/06/05 03:11:15;;;;;;;6.03;5.53;;;;;;;;;;4932005;29;20542;-54
2022/06/05 03:13:41;;;;;;;5.57;5.07;;;;;;;;;;4931930;29;20174;-54
2022/06/05 03:16:10;;;;;;;6.43;5.90;;;;;;;;;;4931929;29;20589;-54
2022/06/05 03:18:36;;;;;;;5.10;4.70;;;;;;;;;;4931851;29;21008;-54
2022/06/05 03:21:02;;;;;;;6.07;5.57;;;;;;;;;;4931282;29;20619;-54
2022/06/05 03:23:28;;;;;;;5.90;4.97;;;;;;;;;;4920544;29;20276;-54
2022/06/05 03:25:54;;;;;;;6.13;5.37;;;;;;;;;;4931646;29;20664;-53
2022/06/05 03:28:20;;;;;;;5.93;5.37;;;;;;;;;;4931806;29;20177;-55
2022/06/05 03:30:46;;;;;;;5.80;5.23;;;;;;;;;;4931782;29;20219;-54
2022/06/05 03:33:12;;;;;;;7.73;7.10;;;;;;;;;;4931564;29;20177;-54
2022/06/05 03:35:40;;;;;;;5.20;4.80;;;;;;;;;;4931141;29;20165;-54
2022/06/05 03:38:06;;;;;;;6.33;5.83;;;;;;;;;;4931603;29;20181;-56
2022/06/05 03:40:33;;;;;;;5.60;5.07;;;;;;;;;;4931753;29;20157;-54
2022/06/05 03:42:59;;;;;;;5.77;5.37;;;;;;;;;;4931576;29;20481;-57
2022/06/05 03:45:26;;;;;;;5.53;5.13;;;;;;;;;;4931661;29;20169;-54
2022/06/05 03:47:52;;;;;;;7.20;5.77;;;;;;;;;;4931020;29;20707;-52
2022/06/05 03:50:18;;;;;;;6.50;5.97;;;;;;;;;;4931483;29;20216;-54
2022/06/05 03:52:45;;;;;;;6.23;5.73;;;;;;;;;;4930310;29;20225;-53
2022/06/05 03:55:13;;;;;;;5.90;5.40;;;;;;;;;;4931414;29;20235;-54
2022/06/05 03:57:40;;;;;;;5.47;4.97;;;;;;;;;;4931114;29;20269;-54
2022/06/05 04:00:07;;;;;;;5.93;5.33;;;;;;;;;;4931833;29;20189;-54
2022/06/05 04:02:34;;;;;;;5.67;5.17;;;;;;;;;;4931408;29;20165;-54
2022/06/05 04:05:01;;;;;;;5.97;5.57;;;;;;;;;;4931293;29;20199;-55
2022/06/05 04:07:27;;;;;;;5.90;5.40;;;;;;;;;;4929996;29;20196;-53
2022/06/05 04:09:53;;;;;;;5.77;5.27;;;;;;;;;;4931330;29;20710;-54
2022/06/05 04:12:19;;;;;;;9.63;5.40;;;;;;;;;;4931151;29;20654;-54
2022/06/05 04:14:45;;;;;;;5.10;4.70;;;;;;;;;;4931256;29;20596;-54
2022/06/05 04:17:12;;;;;;;5.27;4.90;;;;;;;;;;4930983;29;20158;-55
2022/06/05 04:19:38;;;;;;;5.87;5.27;;;;;;;;;;4931154;29;20264;-54
2022/06/05 04:22:05;;;;;;;5.93;5.43;;;;;;;;;;4930080;29;20219;-54
2022/06/05 04:24:31;;;;;;;5.60;5.10;;;;;;;;;;4930920;29;20182;-54
2022/06/05 04:26:57;;;;;;;5.83;5.30;;;;;;;;;;4930850;29;20488;-55
2022/06/05 04:29:23;;;;;;;6.37;5.77;;;;;;;;;;4930848;29;20220;-53
2022/06/05 04:31:49;;;;;;;5.37;4.87;;;;;;;;;;4930666;29;20680;-54
2022/06/05 04:34:17;;;;;;;5.60;5.10;;;;;;;;;;4921853;29;20511;-54
2022/06/05 04:36:43;;;;;;;5.57;5.17;;;;;;;;;;4929940;29;20613;-53
2022/06/05 04:39:10;;;;;;;5.47;5.07;;;;;;;;;;4930498;29;20203;-54
2022/06/05 04:41:36;;;;;;;5.90;5.30;;;;;;;;;;4931042;29;20176;-54
2022/06/05 04:44:02;;;;;;;5.40;5.00;;;;;;;;;;4931015;29;20177;-55
2022/06/05 04:46:29;;;;;;;6.90;5.47;;;;;;;;;;4930536;29;20201;-53
2022/06/05 04:48:55;;;;;;;6.27;5.67;;;;;;;;;;4930459;29;20941;-55
2022/06/05 04:51:22;;;;;;;5.90;5.30;;;;;;;;;;4930158;29;20205;-55
2022/06/05 04:53:49;;;;;;;5.27;4.87;;;;;;;;;;4929872;29;20221;-54
2022/06/05 04:56:17;;;;;;;5.50;5.10;;;;;;;;;;4930661;29;20169;-55
2022/06/05 04:58:43;;;;;;;5.80;5.30;;;;;;;;;;4932321;29;20189;-55
2022/06/05 05:01:13;;;;;;;5.80;5.30;;;;;;;;;;4934122;29;20627;-55
2022/06/05 05:03:39;;;;;;;5.47;5.07;;;;;;;;;;4934388;29;20174;-55
2022/06/05 05:06:05;;;;;;;5.53;5.13;;;;;;;;;;4931911;29;20185;-54
2022/06/05 05:08:32;;;;;;;5.70;5.20;;;;;;;;;;4933889;29;20605;-55
2022/06/05 05:10:58;;;;;;;6.00;4.60;;;;;;;;;;4934129;29;20197;-55
2022/06/05 05:13:24;;;;;;;6.00;5.50;;;;;;;;;;4934079;29;20173;-55
2022/06/05 05:15:50;;;;;;;6.07;5.50;;;;;;;;;;4933907;29;20739;-55
2022/06/05 05:18:30;;;;;;;5.10;4.60;;;;;;;;;;5162225;27;20981;-55
2022/06/05 05:21:03;;;;;;;6.60;5.23;;;;;;;;;;5146392;27;20733;-55
2022/06/05 05:23:30;;;;;;;5.30;4.80;;;;;;;;;;5146286;27;20364;-54
2022/06/05 05:25:56;;;;;;;6.37;5.40;;;;;;;;;;5146766;27;20568;-54
2022/06/05 05:28:22;;;;;;;7.40;5.50;;;;;;;;;;5146324;27;20589;-55
2022/06/05 05:30:48;;;;;;;5.10;4.70;;;;;;;;;;5146913;27;20523;-55
2022/06/05 05:33:14;;;;;;;6.40;4.77;;;;;;;;;;5146486;27;20166;-54
2022/06/05 05:35:40;;;;;;;7.20;4.70;;;;;;;;;;5145900;27;20161;-55
2022/06/05 05:38:06;;;;;;;4.97;4.63;;;;;;;;;;5146203;27;20224;-53
2022/06/05 05:43:17;;;;;;;5.20;4.70;;;;;;;;;;5146171;27;20180;-55
2022/06/05 05:45:44;;;;;;;5.23;4.83;;;;;;;;;;5146486;27;20211;-55
2022/06/05 05:48:10;;;;;;;7.13;4.83;;;;;;;;;;5146094;27;20158;-54
2022/06/05 05:50:36;;;;;;;5.17;4.73;;;;;;;;;;5138001;27;20229;-54
2022/06/05 05:53:02;;;;;;;6.70;4.93;;;;;;;;;;5124817;28;20166;-55
2022/06/05 05:55:28;;;;;;;5.17;4.80;;;;;;;;;;5125244;28;20159;-55
2022/06/05 05:57:55;;;;;;;4.60;4.30;;;;;;;;;;5125223;28;20297;-55
2022/06/05 06:00:22;;;;;;;8.57;4.97;;;;;;;;;;5125644;28;20182;-56
2022/06/05 06:02:48;;;;;;;4.93;4.53;;;;;;;;;;5125486;28;20223;-55
2022/06/05 06:05:15;;;;;;;8.20;5.10;;;;;;;;;;5125246;28;20163;-55
2022/06/05 06:07:42;;;;;;;5.20;4.70;;;;;;;;;;5124721;28;20175;-55
2022/06/05 06:10:08;;;;;;;5.47;4.97;;;;;;;;;;5124896;28;20232;-55
2022/06/05 06:12:35;;;;;;;5.13;4.67;;;;;;;;;;5125379;28;20202;-55
2022/06/05 06:15:01;;;;;;;4.93;4.53;;;;;;;;;;5125274;28;20613;-55
2022/06/05 06:17:27;;;;;;;5.03;4.60;;;;;;;;;;5105935;28;20333;-55
2022/06/05 06:19:53;;;;;;;5.30;4.90;;;;;;;;;;5125314;28;20601;-55
2022/06/05 06:22:20;;;;;;;5.57;5.00;;;;;;;;;;5124358;28;20163;-54
2022/06/05 06:24:46;;;;;;;5.60;4.93;;;;;;;;;;5124888;28;20175;-54
2022/06/05 06:27:12;;;;;;;5.27;4.87;;;;;;;;;;5124911;28;20186;-54
2022/06/05 06:29:38;;;;;;;5.40;4.90;;;;;;;;;;5112391;28;20567;-55
2022/06/05 06:32:05;;;;;;;5.07;4.67;;;;;;;;;;5111581;28;20228;-55
2022/06/05 06:34:31;;;;;;;5.00;4.60;;;;;;;;;;5111148;28;20589;-55
2022/06/05 06:36:57;;;;;;;5.43;4.90;;;;;;;;;;5092129;28;20226;-55
2022/06/05 06:39:24;;;;;;;6.10;5.50;;;;;;;;;;5110662;28;20190;-55
2022/06/05 06:41:50;;;;;;;5.43;5.03;;;;;;;;;;5110719;28;20183;-52
2022/06/05 06:44:17;;;;;;;5.00;4.60;;;;;;;;;;5102114;28;20198;-55
2022/06/05 06:46:44;;;;;;;5.40;4.90;;;;;;;;;;5109179;28;20179;-55
2022/06/05 06:49:10;;;;;;;5.07;4.73;;;;;;;;;;5100694;28;20182;-52
2022/06/05 06:51:36;;;;;;;5.83;5.33;;;;;;;;;;5111020;28;20187;-55
2022/06/05 06:54:03;;;;;;;5.33;4.83;;;;;;;;;;5109957;28;20180;-55
2022/06/05 06:56:30;;;;;;;5.27;4.87;;;;;;;;;;5110904;28;20574;-56
2022/06/05 06:58:58;;;;;;;5.50;5.00;;;;;;;;;;5110022;28;20217;-56
2022/06/05 07:01:24;;;;;;;5.20;4.80;;;;;;;;;;5110951;28;20171;-56
2022/06/05 07:03:50;;;;;;;5.03;4.73;;;;;;;;;;5109679;28;20171;-56
2022/06/05 07:06:17;;;;;;;5.50;5.00;;;;;;;;;;5110408;28;20167;-54
2022/06/05 07:08:44;;;;;;;5.93;5.40;;;;;;;;;;5109675;28;20175;-56
2022/06/05 07:11:11;;;;;;;5.93;5.10;;;;;;;;;;5110772;28;20631;-55
2022/06/05 07:13:37;;;;;;;5.43;4.93;;;;;;;;;;5109676;28;20252;-54
2022/06/05 07:16:05;;;;;;;6.70;5.27;;;;;;;;;;5110392;28;20605;-56
2022/06/05 07:18:31;;;;;;;5.27;4.87;;;;;;;;;;5109924;28;20289;-55
2022/06/05 07:20:57;;;;;;;5.90;5.40;;;;;;;;;;5110729;28;20174;-55
2022/06/05 07:23:24;;;;;;;5.57;5.10;;;;;;;;;;5090535;28;20190;-56
2022/06/05 07:25:51;;;;;;;5.47;5.07;;;;;;;;;;5110107;28;20224;-55
2022/06/05 07:28:18;;;;;;;5.70;5.20;;;;;;;;;;5109043;28;20184;-54
2022/06/05 07:30:48;;;;;;;5.63;5.20;;;;;;;;;;5110488;28;20152;-56
2022/06/05 07:33:14;;;;;;;5.77;5.30;;;;;;;;;;5109319;28;20633;-56
2022/06/05 07:35:41;;;;;;;5.67;5.17;;;;;;;;;;5109932;28;20171;-56
2022/06/05 07:38:08;;;;;;;6.03;5.53;;;;;;;;;;5109403;28;20203;-53
2022/06/05 07:40:38;;;;;;;6.77;5.20;;;;;;;;;;5089632;28;20171;-56
2022/06/05 07:43:04;;;;;;;5.60;5.10;;;;;;;;;;5109135;28;20183;-56
2022/06/05 07:45:30;;;;;;;5.07;4.67;;;;;;;;;;5109506;28;20995;-56
2022/06/05 07:47:56;;;;;;;5.60;5.10;;;;;;;;;;5110109;28;20703;-55
2022/06/05 07:50:22;;;;;;;5.60;5.10;;;;;;;;;;5109039;28;20726;-54
2022/06/05 07:55:33;;;;;;;5.23;4.73;;;;;;;;;;5088995;28;20245;-55
2022/06/05 07:58:00;;;;;;;5.43;5.03;;;;;;;;;;5089174;28;20742;-56
2022/06/05 08:00:26;;;;;;;5.53;5.00;;;;;;;;;;5109753;28;20163;-56
2022/06/05 08:02:52;;;;;;;6.20;5.70;;;;;;;;;;5109679;28;20164;-55
2022/06/05 08:05:18;;;;;;;5.93;5.43;;;;;;;;;;5109119;28;20674;-56
2022/06/05 08:07:44;;;;;;;5.33;4.97;;;;;;;;;;5090757;28;20270;-55
2022/06/05 08:10:10;;;;;;;5.63;5.13;;;;;;;;;;5108286;28;20174;-56
2022/06/05 08:12:37;;;;;;;6.43;5.83;;;;;;;;;;5108969;28;20250;-53
2022/06/05 08:15:06;;;;;;;7.77;5.73;;;;;;;;;;5108779;28;20522;-55
2022/06/05 08:17:32;;;;;;;5.93;5.33;;;;;;;;;;5108364;28;20249;-54
2022/06/05 08:19:59;;;;;;;7.83;5.50;;;;;;;;;;5108687;28;20177;-54
2022/06/05 08:22:25;;;;;;;6.00;5.37;;;;;;;;;;5108593;28;20313;-55
2022/06/05 08:24:52;;;;;;;6.40;5.90;;;;;;;;;;5108081;28;20246;-56
2022/06/05 08:27:19;;;;;;;6.03;5.53;;;;;;;;;;5107960;28;20641;-56
2022/06/05 08:29:46;;;;;;;6.23;5.67;;;;;;;;;;5108168;28;20258;-55
2022/06/05 08:32:13;;;;;;;6.07;5.50;;;;;;;;;;5108399;28;20147;-55
2022/06/05 08:34:39;;;;;;;5.70;5.23;;;;;;;;;;5107690;28;20254;-55
2022/06/05 08:42:37;;;;;;;6.43;5.90;;;;;;;;;;5107686;28;20175;-57
2022/06/05 08:45:19;;;;;;;6.10;5.60;;;;;;;;;;5105669;28;20952;-55
2022/06/05 08:47:51;;;;;;;6.93;6.33;;;;;;;;;;5106532;28;20651;-56
2022/06/05 08:50:20;;;;;;;6.40;5.80;;;;;;;;;;5110083;28;20196;-57
2022/06/05 08:52:51;;;;;;;5.87;5.47;;;;;;;;;;5109436;28;20187;-57
2022/06/05 08:55:22;;;;;;;6.33;5.73;;;;;;;;;;5103490;28;20850;-57
2022/06/05 08:57:48;;;;;;;6.60;6.10;;;;;;;;;;5103216;28;20886;-54
2022/06/05 09:00:35;;;;;;;6.70;6.10;;;;;;;;;;5104954;28;20234;-55
2022/06/05 09:03:22;;;;;;;6.20;5.60;;;;;;;;;;5090104;28;20235;-55
2022/06/05 09:05:50;;;;;;;6.00;5.60;;;;;;;;;;5108379;28;20178;-56
2022/06/05 09:08:18;;;;;;;6.53;6.03;;;;;;;;;;5109197;28;20180;-56
2022/06/05 09:10:48;;;;;;;6.63;6.13;;;;;;;;;;5110075;28;20174;-56
2022/06/05 09:13:15;;;;;;;5.97;5.47;;;;;;;;;;5109295;28;20162;-56
2022/06/05 09:15:47;;;;;;;7.10;6.40;;;;;;;;;;5110378;28;20180;-57
2022/06/05 09:18:23;;;;;;;6.60;5.87;;;;;;;;;;5107495;28;20868;-56
2022/06/05 09:20:55;;;;;;;6.40;5.80;;;;;;;;;;5110270;28;20166;-56
2022/06/05 09:23:30;;;;;;;7.80;5.87;;;;;;;;;;5097474;28;20197;-55
2022/06/05 09:26:02;;;;;;;10.67;7.33;;;;;;;;;;5110154;28;20582;-56
2022/06/05 09:28:35;;;;;;;7.00;6.40;;;;;;;;;;5109776;28;20643;-56
2022/06/05 09:31:08;;;;;;;6.27;5.73;;;;;;;;;;5110031;28;20611;-56
2022/06/05 09:33:37;;;;;;;6.47;5.87;;;;;;;;;;5109723;28;20686;-56
2022/06/05 09:36:08;;;;;;;6.50;6.03;;;;;;;;;;5109890;28;20168;-57
2022/06/05 09:38:34;;;;;;;7.07;6.17;;;;;;;;;;5108656;28;20197;-55
2022/06/05 09:41:12;;;;;;;7.07;6.47;;;;;;;;;;5109563;28;20185;-56
2022/06/05 09:43:54;;;;;;;6.17;5.67;;;;;;;;;;5109352;28;20251;-53
2022/06/05 09:46:25;;;;;;;6.70;6.20;;;;;;;;;;5090610;28;20174;-55
2022/06/05 09:48:54;;;;;;;6.77;6.27;;;;;;;;;;5109480;28;20189;-56
2022/06/05 09:51:20;;;;;;;6.77;6.13;;;;;;;;;;5109978;28;20660;-55
2022/06/05 09:53:54;;;;;;;6.73;6.13;;;;;;;;;;5108583;28;20233;-55
2022/06/05 09:56:34;;;;;;;6.50;5.77;;;;;;;;;;5091130;28;20183;-56
2022/06/05 09:59:21;;;;;;;6.80;6.23;;;;;;;;;;5090242;28;20696;-56
2022/06/05 10:01:54;;;;;;;5.90;5.50;;;;;;;;;;5109999;28;20200;-51
2022/06/05 10:04:21;;;;;;;7.23;6.53;;;;;;;;;;5111747;28;20181;-56
2022/06/05 10:06:56;;;;;;;6.87;6.30;;;;;;;;;;5113207;28;20167;-52
2022/06/05 10:09:27;;;;;;;8.83;6.83;;;;;;;;;;5113085;28;20374;-56
2022/06/05 10:11:57;;;;;;;7.67;7.03;;;;;;;;;;5104256;28;20251;-55
2022/06/05 10:14:30;;;;;;;8.35;7.65;;;;;;;;;;5086440;28;20488;-54
2022/06/05 10:17:25;;;;;;;8.07;7.47;;;;;;;;;;5110862;28;20317;-56
2022/06/05 10:19:57;;;;;;;8.47;7.60;;;;;;;;;;5113281;28;20394;-55
2022/06/05 10:22:29;;;;;;;8.23;7.63;;;;;;;;;;5112528;28;20199;-54
2022/06/05 10:24:55;;;;;;;8.93;8.23;;;;;;;;;;5112747;28;20196;-54
2022/06/05 10:27:22;;;;;;;8.63;7.83;;;;;;;;;;5112704;28;20184;-54
2022/06/05 10:29:50;;;;;;;8.83;8.03;;;;;;;;;;5113462;28;20169;-50
2022/06/05 10:32:16;;;;;;;8.67;8.07;;;;;;;;;;5094629;28;20623;-54
2022/06/05 10:34:48;;;;;;;8.83;8.23;;;;;;;;;;5112809;28;20180;-54
2022/06/05 10:37:32;;;;;;;10.27;8.53;;;;;;;;;;5112628;28;20197;-54
2022/06/05 10:40:11;;;;;;;9.93;9.03;;;;;;;;;;5094440;28;20179;-55
2022/06/05 10:42:40;;;;;;;10.07;9.27;;;;;;;;;;5112731;28;20214;-54
2022/06/05 10:45:16;;;;;;;10.63;9.73;;;;;;;;;;5094766;28;20265;-54
2022/06/05 10:47:45;;;;;;;9.77;9.07;;;;;;;;;;5113458;28;20249;-54
2022/06/05 10:50:23;;;;;;;10.93;10.13;;;;;;;;;;5112939;28;20294;-54
2022/06/05 10:52:58;;;;;;;11.43;10.33;;;;;;;;;;5112300;28;20237;-54
2022/06/05 10:55:43;;;;;;;10.20;9.50;;;;;;;;;;5092111;28;20571;-54
2022/06/05 10:58:18;;;;;;;10.43;9.63;;;;;;;;;;5093199;28;20193;-54
2022/06/05 11:00:56;;;;;;;10.87;10.03;;;;;;;;;;5112900;28;20164;-53
2022/06/05 11:03:27;;;;;;;11.07;10.17;;;;;;;;;;5112535;28;20187;-54
2022/06/05 11:06:13;;;;;;;10.30;9.50;;;;;;;;;;5112382;28;20226;-54
2022/06/05 11:09:12;;;;;;;10.10;9.30;;;;;;;;;;5111945;28;20183;-54
2022/06/05 11:15:04;;;;;;;9.80;9.10;;;;;;;;;;5112678;28;20467;-53
2022/06/05 11:17:42;;;;;;;10.40;9.60;;;;;;;;;;5008348;28;20740;-52
2022/06/05 11:20:12;;;;;;;9.87;9.10;;;;;;;;;;5064601;28;20603;-53
2022/06/05 11:22:41;;;;;;;10.93;9.93;;;;;;;;;;5071471;28;20181;-53
2022/06/05 11:25:12;;;;;;;10.10;9.30;;;;;;;;;;5070756;28;20170;-53
2022/06/05 11:28:05;;;;;;;9.43;7.93;;;;;;;;;;5071219;28;20158;-52
2022/06/05 11:30:42;;;;;;;9.47;8.70;;;;;;;;;;5043400;28;20206;-53
2022/06/05 11:33:16;;;;;;;9.70;8.90;;;;;;;;;;5052520;28;20173;-52
2022/06/05 11:36:01;;;;;;;9.50;8.80;;;;;;;;;;5071579;28;20161;-53
2022/06/05 11:38:45;;;;;;;9.90;9.07;;;;;;;;;;5070198;28;20200;-52
2022/06/05 11:41:35;;;;;;;9.50;8.80;;;;;;;;;;5070676;28;20196;-52
2022/06/05 11:44:17;;;;;;;9.13;8.43;;;;;;;;;;5062846;28;20184;-52
2022/06/05 11:46:51;;;;;;;9.97;9.17;;;;;;;;;;5066181;28;20675;-52
2022/06/05 11:49:23;;;;;;;8.87;8.27;;;;;;;;;;5065891;28;20579;-51
2022/06/05 11:51:52;;;;;;;9.50;8.80;;;;;;;;;;5068690;28;20204;-49
2022/06/05 11:54:24;;;;;;;10.60;9.70;;;;;;;;;;5069419;28;20222;-53
2022/06/05 11:57:09;;;;;;;10.60;9.70;;;;;;;;;;5070636;28;20614;-52
2022/06/05 11:59:54;;;;;;;11.87;11.07;;;;;;;;;;5070801;28;20177;-52
2022/06/05 12:02:32;;;;;;;11.03;10.10;;;;;;;;;;5070854;28;20246;-52
2022/06/05 12:05:05;;;;;;;9.00;8.30;;;;;;;;;;5070798;28;20172;-52
2022/06/05 12:07:32;;;;;;;9.23;8.53;;;;;;;;;;5070836;28;20166;-52
2022/06/05 12:10:03;;;;;;;9.60;8.80;;;;;;;;;;5070136;28;20638;-52
2022/06/05 12:12:36;;;;;;;8.90;8.20;;;;;;;;;;5064715;28;20166;-52
2022/06/05 12:15:14;;;;;;;9.87;9.07;;;;;;;;;;5063674;28;20229;-51
2022/06/05 12:17:43;;;;;;;9.03;8.30;;;;;;;;;;5085471;28;21031;-52
2022/06/05 12:20:24;;;;;;;9.63;8.93;;;;;;;;;;5108527;28;20708;-52
2022/06/05 12:23:00;;;;;;;9.73;8.83;;;;;;;;;;5109445;28;20207;-52
2022/06/05 12:25:28;;;;;;;9.57;8.80;;;;;;;;;;5090141;28;20506;-52
2022/06/05 12:27:54;;;;;;;9.23;8.43;;;;;;;;;;5089874;28;20230;-51
2022/06/05 12:30:32;;;;;;;9.43;8.63;;;;;;;;;;5111073;28;20612;-52
2022/06/05 12:33:03;;;;;;;8.53;7.93;;;;;;;;;;5092307;28;20256;-52
2022/06/05 12:35:34;;;;;;;8.30;7.70;;;;;;;;;;5092939;28;20181;-52
2022/06/05 12:38:19;;;;;;;8.00;7.40;;;;;;;;;;5110487;28;20189;-51
2022/06/05 12:40:52;;;;;;;7.97;7.27;;;;;;;;;;5111048;28;20640;-51
2022/06/05 12:43:37;;;;;;;8.47;7.53;;;;;;;;;;5110345;28;20208;-54
2022/06/05 12:46:14;;;;;;;7.97;7.37;;;;;;;;;;5110658;28;20215;-52
2022/06/05 12:48:41;;;;;;;9.23;8.33;;;;;;;;;;5110571;28;20590;-52
2022/06/05 12:51:19;;;;;;;8.43;7.63;;;;;;;;;;5110528;28;20197;-51
2022/06/05 12:54:09;;;;;;;7.80;7.10;;;;;;;;;;5109377;28;20341;-52
2022/06/05 12:56:44;;;;;;;8.17;7.57;;;;;;;;;;5109988;28;20242;-51
2022/06/05 12:59:13;;;;;;;8.10;7.33;;;;;;;;;;5109565;28;20653;-52
2022/06/05 13:01:43;;;;;;;8.37;7.77;;;;;;;;;;5110086;28;20163;-52
2022/06/05 13:04:48;;;;;;;9.20;8.60;;;;;;;;;;5091346;28;20177;-52
2022/06/05 13:07:17;;;;;;;8.37;7.67;;;;;;;;;;5006808;28;20211;-52
2022/06/05 13:09:47;;;;;;;8.60;7.90;;;;;;;;;;5007018;28;20333;-54
2022/06/05 13:12:13;;;;;;;8.50;7.90;;;;;;;;;;5059993;28;20755;-53
2022/06/05 13:14:48;;;;;;;8.30;7.50;;;;;;;;;;5109949;28;20182;-53
2022/06/05 13:17:31;;;;;;;8.70;8.00;;;;;;;;;;5108525;28;20236;-54
2022/06/05 13:20:00;;;;;;;8.10;7.50;;;;;;;;;;5109786;28;20174;-53
2022/06/05 13:22:36;;;;;;;7.83;7.20;;;;;;;;;;5109442;28;20177;-54
2022/06/05 13:25:21;;;;;;;7.23;6.73;;;;;;;;;;5090688;28;20174;-54
2022/06/05 13:27:52;;;;;;;7.73;7.23;;;;;;;;;;5109307;28;20163;-53
2022/06/05 13:30:20;;;;;;;6.93;6.37;;;;;;;;;;5109650;28;20279;-51
2022/06/05 13:32:48;;;;;;;7.67;7.10;;;;;;;;;;5091385;28;20625;-54
2022/06/05 13:35:14;;;;;;;7.73;6.97;;;;;;;;;;5109930;28;20654;-55
2022/06/05 13:37:50;;;;;;;8.13;7.53;;;;;;;;;;5091163;28;20297;-54
2022/06/05 13:40:36;;;;;;;8.17;7.57;;;;;;;;;;5113445;28;20624;-54
2022/06/05 13:43:03;;;;;;;8.00;7.37;;;;;;;;;;5113111;28;20549;-53
2022/06/05 13:45:36;;;;;;;8.60;7.97;;;;;;;;;;5095620;28;20605;-54
2022/06/05 13:48:08;;;;;;;8.23;7.50;;;;;;;;;;5095357;28;20266;-55
2022/06/05 13:50:38;;;;;;;8.47;7.87;;;;;;;;;;5093672;28;20191;-53
2022/06/05 13:53:10;;;;;;;8.23;7.57;;;;;;;;;;5092636;28;20473;-55
2022/06/05 13:55:39;;;;;;;7.90;7.40;;;;;;;;;;5113515;28;20220;-55
2022/06/05 13:58:12;;;;;;;8.03;7.43;;;;;;;;;;5112017;28;20524;-54
2022/06/05 14:00:54;;;;;;;8.30;7.70;;;;;;;;;;5113601;28;20498;-54
2022/06/05 14:03:35;;;;;;;10.47;9.67;;;;;;;;;;5112511;28;20635;-54
2022/06/05 14:06:03;;;;;;;8.00;7.37;;;;;;;;;;5112649;28;20468;-53
2022/06/05 14:08:51;;;;;;;8.57;7.97;;;;;;;;;;5112417;28;20657;-56
2022/06/05 14:11:20;;;;;;;8.27;7.67;;;;;;;;;;5094500;28;20179;-54
2022/06/05 14:13:51;;;;;;;8.60;7.90;;;;;;;;;;5112596;28;20167;-55
2022/06/05 14:16:18;;;;;;;8.90;8.20;;;;;;;;;;5094781;28;20244;-55
2022/06/05 14:19:00;;;;;;;8.23;7.63;;;;;;;;;;5110526;28;20211;-55
2022/06/05 14:21:28;;;;;;;8.80;8.20;;;;;;;;;;5112896;28;20293;-55
2022/06/05 14:23:55;;;;;;;9.23;8.43;;;;;;;;;;5093801;28;20587;-54
2022/06/05 14:26:42;;;;;;;8.87;8.23;;;;;;;;;;5094378;28;20640;-53
2022/06/05 14:29:13;;;;;;;8.83;8.23;;;;;;;;;;5111273;28;20168;-54
2022/06/05 14:31:39;;;;;;;9.67;8.77;;;;;;;;;;5113277;28;20478;-54
2022/06/05 14:34:06;;;;;;;9.40;8.70;;;;;;;;;;5112741;28;20593;-55
2022/06/05 14:36:37;;;;;;;7.67;7.10;;;;;;;;;;5112578;28;20698;-55
2022/06/05 14:39:24;;;;;;;8.93;7.53;;;;;;;;;;5110649;28;20611;-55
2022/06/05 14:42:03;;;;;;;8.27;7.67;;;;;;;;;;5091585;28;20636;-53
2022/06/05 14:44:32;;;;;;;6.93;6.33;;;;;;;;;;5102717;28;20176;-55
2022/06/05 14:47:02;;;;;;;7.40;6.70;;;;;;;;;;5111807;28;20583;-54
2022/06/05 14:49:47;;;;;;;7.27;6.77;;;;;;;;;;5112384;28;20539;-55
2022/06/05 14:52:32;;;;;;;6.80;6.30;;;;;;;;;;5112586;28;20589;-53
2022/06/05 14:58:03;;;;;;;7.87;7.20;;;;;;;;;;5112283;28;20261;-53
2022/06/05 15:00:34;;;;;;;6.77;6.27;;;;;;;;;;5112720;28;20253;-54
2022/06/05 15:03:12;;;;;;;7.47;6.77;;;;;;;;;;5112537;28;20163;-54
2022/06/05 15:05:53;;;;;;;6.30;5.80;;;;;;;;;;5092265;28;20719;-54
2022/06/05 15:08:48;;;;;;;6.67;6.17;;;;;;;;;;5074902;28;20644;-54
2022/06/05 15:11:33;;;;;;;6.67;6.17;;;;;;;;;;5087432;28;20626;-54
2022/06/05 15:14:09;;;;;;;7.40;6.77;;;;;;;;;;5098825;28;20165;-54
2022/06/05 15:16:49;;;;;;;6.83;6.33;;;;;;;;;;5112439;28;20403;-54
2022/06/05 15:19:18;;;;;;;7.57;6.97;;;;;;;;;;5089911;28;20223;-53
2022/06/05 15:21:48;;;;;;;7.70;6.90;;;;;;;;;;5092189;28;20515;-52
2022/06/05 15:24:19;;;;;;;6.60;6.10;;;;;;;;;;5091213;28;20174;-53
2022/06/05 15:26:55;;;;;;;7.73;7.03;;;;;;;;;;5107015;28;20569;-52